sensor_id;sensor_type;location;lat;lon;timestamp;P1;durP1;ratioP1;P2;durP2;ratioP2
61104;SDS011;46987;32.638;-115.438;2022-10-17T00:01:16;3.20;;;1.20;;
61104;SDS011;46987;32.638;-115.438;2022-10-17T00:03:45;4.57;;;1.42;;
61104;SDS011;46987;32.638;-115.438;2022-10-17T00:06:13;6.10;;;1.48;;
61104;SDS011;46987;32.638;-115.438;2022-10-17T00:08:41;4.95;;;1.48;;
61104;SDS011;46987;32.638;-115.438;2022-10-17T00:11:12;5.18;;;1.50;;
61104;SDS011;46987;32.638;-115.438;2022-10-17T00:13:42;3.30;;;1.30;;
61104;SDS011;46987;32.638;-115.438;2022-10-17T00:16:10;3.83;;;1.40;;
61104;SDS011;46987;32.638;-115.438;2022-10-17T00:18:38;4.15;;;1.25;;
61104;SDS011;46987;32.638;-115.438;2022-10-17T00:21:09;6.07;;;1.42;;
61104;SDS011;46987;32.638;-115.438;2022-10-17T00:23:41;4.63;;;1.70;;
61104;SDS011;46987;32.638;-115.438;2022-10-17T00:26:08;6.57;;;2.38;;
61104;SDS011;46987;32.638;-115.438;2022-10-17T00:28:35;6.20;;;1.95;;
61104;SDS011;46987;32.638;-115.438;2022-10-17T00:31:03;30.05;;;23.08;;
61104;SDS011;46987;32.638;-115.438;2022-10-17T00:33:31;16.23;;;9.60;;
61104;SDS011;46987;32.638;-115.438;2022-10-17T00:36:03;13.43;;;8.77;;
61104;SDS011;46987;32.638;-115.438;2022-10-17T00:38:33;5.13;;;1.45;;
61104;SDS011;46987;32.638;-115.438;2022-10-17T00:41:01;4.22;;;1.33;;
61104;SDS011;46987;32.638;-115.438;2022-10-17T00:43:29;5.38;;;1.25;;
61104;SDS011;46987;32.638;-115.438;2022-10-17T00:46:13;9.82;;;2.85;;
61104;SDS011;46987;32.638;-115.438;2022-10-17T00:48:41;6.65;;;2.20;;
61104;SDS011;46987;32.638;-115.438;2022-10-17T00:51:08;5.45;;;1.52;;
61104;SDS011;46987;32.638;-115.438;2022-10-17T00:53:37;9.38;;;1.90;;
61104;SDS011;46987;32.638;-115.438;2022-10-17T00:56:05;4.72;;;2.70;;
61104;SDS011;46987;32.638;-115.438;2022-10-17T00:58:33;11.25;;;4.07;;
61104;SDS011;46987;32.638;-115.438;2022-10-17T01:01:04;5.50;;;2.47;;
61104;SDS011;46987;32.638;-115.438;2022-10-17T01:03:32;8.70;;;2.80;;
61104;SDS011;46987;32.638;-115.438;2022-10-17T01:05:59;6.45;;;2.55;;
61104;SDS011;46987;32.638;-115.438;2022-10-17T01:08:27;5.97;;;2.67;;
61104;SDS011;46987;32.638;-115.438;2022-10-17T01:10:56;10.32;;;2.90;;
61104;SDS011;46987;32.638;-115.438;2022-10-17T01:13:32;7.93;;;2.70;;
61104;SDS011;46987;32.638;-115.438;2022-10-17T01:16:07;9.52;;;2.58;;
61104;SDS011;46987;32.638;-115.438;2022-10-17T01:18:42;4.50;;;1.75;;
61104;SDS011;46987;32.638;-115.438;2022-10-17T01:21:25;6.70;;;2.22;;
61104;SDS011;46987;32.638;-115.438;2022-10-17T01:33:49;6.05;;;1.90;;
61104;SDS011;46987;32.638;-115.438;2022-10-17T01:36:31;6.35;;;2.28;;
61104;SDS011;46987;32.638;-115.438;2022-10-17T01:39:10;7.68;;;2.70;;
61104;SDS011;46987;32.638;-115.438;2022-10-17T01:41:43;7.57;;;2.97;;
61104;SDS011;46987;32.638;-115.438;2022-10-17T01:44:17;8.02;;;2.80;;
61104;SDS011;46987;32.638;-115.438;2022-10-17T01:46:48;8.02;;;2.72;;
61104;SDS011;46987;32.638;-115.438;2022-10-17T01:49:22;11.50;;;2.90;;
61104;SDS011;46987;32.638;-115.438;2022-10-17T01:54:23;10.25;;;3.10;;
61104;SDS011;46987;32.638;-115.438;2022-10-17T01:56:55;5.78;;;2.30;;
61104;SDS011;46987;32.638;-115.438;2022-10-17T01:59:27;9.67;;;2.50;;
61104;SDS011;46987;32.638;-115.438;2022-10-17T02:04:30;5.90;;;2.80;;
61104;SDS011;46987;32.638;-115.438;2022-10-17T02:07:04;11.02;;;2.90;;
61104;SDS011;46987;32.638;-115.438;2022-10-17T02:09:32;10.52;;;2.65;;
61104;SDS011;46987;32.638;-115.438;2022-10-17T02:12:08;11.07;;;3.60;;
61104;SDS011;46987;32.638;-115.438;2022-10-17T02:14:50;13.07;;;3.75;;
61104;SDS011;46987;32.638;-115.438;2022-10-17T02:20:08;15.18;;;4.53;;
61104;SDS011;46987;32.638;-115.438;2022-10-17T02:22:42;11.18;;;4.97;;
61104;SDS011;46987;32.638;-115.438;2022-10-17T02:25:17;14.55;;;5.88;;
61104;SDS011;46987;32.638;-115.438;2022-10-17T02:27:54;14.18;;;6.18;;
61104;SDS011;46987;32.638;-115.438;2022-10-17T02:30:28;19.77;;;8.23;;
61104;SDS011;46987;32.638;-115.438;2022-10-17T02:33:04;13.10;;;7.20;;
61104;SDS011;46987;32.638;-115.438;2022-10-17T02:35:39;18.40;;;7.57;;
61104;SDS011;46987;32.638;-115.438;2022-10-17T02:38:09;16.58;;;7.88;;
61104;SDS011;46987;32.638;-115.438;2022-10-17T02:40:37;16.30;;;7.75;;
61104;SDS011;46987;32.638;-115.438;2022-10-17T02:43:06;17.90;;;7.47;;
61104;SDS011;46987;32.638;-115.438;2022-10-17T02:45:34;21.30;;;8.82;;
61104;SDS011;46987;32.638;-115.438;2022-10-17T02:48:04;18.88;;;8.70;;
61104;SDS011;46987;32.638;-115.438;2022-10-17T02:50:40;14.30;;;7.85;;
61104;SDS011;46987;32.638;-115.438;2022-10-17T02:53:14;17.05;;;7.47;;
61104;SDS011;46987;32.638;-115.438;2022-10-17T02:55:52;13.90;;;8.15;;
61104;SDS011;46987;32.638;-115.438;2022-10-17T02:58:24;19.00;;;9.60;;
61104;SDS011;46987;32.638;-115.438;2022-10-17T03:00:55;19.90;;;10.50;;
61104;SDS011;46987;32.638;-115.438;2022-10-17T03:03:24;23.73;;;10.27;;
61104;SDS011;46987;32.638;-115.438;2022-10-17T03:05:54;22.75;;;10.52;;
61104;SDS011;46987;32.638;-115.438;2022-10-17T03:08:24;20.63;;;10.10;;
61104;SDS011;46987;32.638;-115.438;2022-10-17T03:10:52;26.05;;;10.95;;
61104;SDS011;46987;32.638;-115.438;2022-10-17T03:13:23;19.23;;;10.10;;
61104;SDS011;46987;32.638;-115.438;2022-10-17T03:15:55;24.05;;;11.38;;
61104;SDS011;46987;32.638;-115.438;2022-10-17T03:18:23;26.95;;;12.85;;
61104;SDS011;46987;32.638;-115.438;2022-10-17T03:20:56;22.80;;;12.13;;
61104;SDS011;46987;32.638;-115.438;2022-10-17T03:23:24;28.55;;;12.30;;
61104;SDS011;46987;32.638;-115.438;2022-10-17T03:25:51;24.52;;;11.23;;
61104;SDS011;46987;32.638;-115.438;2022-10-17T03:28:19;25.15;;;13.60;;
61104;SDS011;46987;32.638;-115.438;2022-10-17T03:30:46;25.27;;;12.68;;
61104;SDS011;46987;32.638;-115.438;2022-10-17T03:33:14;26.15;;;12.95;;
61104;SDS011;46987;32.638;-115.438;2022-10-17T03:35:41;32.92;;;12.65;;
61104;SDS011;46987;32.638;-115.438;2022-10-17T03:38:10;29.02;;;11.57;;
61104;SDS011;46987;32.638;-115.438;2022-10-17T03:40:38;20.92;;;10.13;;
61104;SDS011;46987;32.638;-115.438;2022-10-17T03:43:05;19.92;;;11.20;;
61104;SDS011;46987;32.638;-115.438;2022-10-17T03:45:33;23.50;;;9.43;;
61104;SDS011;46987;32.638;-115.438;2022-10-17T03:48:02;16.10;;;7.95;;
61104;SDS011;46987;32.638;-115.438;2022-10-17T03:50:30;15.60;;;6.95;;
61104;SDS011;46987;32.638;-115.438;2022-10-17T03:52:58;14.57;;;6.28;;
61104;SDS011;46987;32.638;-115.438;2022-10-17T03:55:28;11.48;;;6.65;;
61104;SDS011;46987;32.638;-115.438;2022-10-17T03:57:55;14.43;;;6.55;;
61104;SDS011;46987;32.638;-115.438;2022-10-17T04:00:22;13.55;;;6.53;;
61104;SDS011;46987;32.638;-115.438;2022-10-17T04:02:55;14.27;;;6.13;;
61104;SDS011;46987;32.638;-115.438;2022-10-17T04:05:25;18.05;;;7.13;;
61104;SDS011;46987;32.638;-115.438;2022-10-17T04:07:55;17.50;;;7.22;;
61104;SDS011;46987;32.638;-115.438;2022-10-17T04:10:39;18.55;;;7.05;;
61104;SDS011;46987;32.638;-115.438;2022-10-17T04:13:07;18.30;;;7.43;;
61104;SDS011;46987;32.638;-115.438;2022-10-17T04:15:35;16.75;;;7.40;;
61104;SDS011;46987;32.638;-115.438;2022-10-17T04:18:03;17.05;;;7.18;;
61104;SDS011;46987;32.638;-115.438;2022-10-17T04:20:30;23.50;;;7.05;;
61104;SDS011;46987;32.638;-115.438;2022-10-17T04:23:00;24.77;;;8.32;;
61104;SDS011;46987;32.638;-115.438;2022-10-17T04:25:27;23.63;;;8.13;;
61104;SDS011;46987;32.638;-115.438;2022-10-17T04:27:56;22.00;;;8.20;;
61104;SDS011;46987;32.638;-115.438;2022-10-17T04:30:23;23.52;;;8.82;;
61104;SDS011;46987;32.638;-115.438;2022-10-17T04:32:50;26.42;;;10.40;;
61104;SDS011;46987;32.638;-115.438;2022-10-17T04:35:21;27.45;;;8.70;;
61104;SDS011;46987;32.638;-115.438;2022-10-17T04:37:56;26.35;;;9.73;;
61104;SDS011;46987;32.638;-115.438;2022-10-17T04:40:24;25.98;;;9.63;;
61104;SDS011;46987;32.638;-115.438;2022-10-17T04:42:52;25.17;;;9.27;;
61104;SDS011;46987;32.638;-115.438;2022-10-17T04:45:29;22.30;;;8.63;;
61104;SDS011;46987;32.638;-115.438;2022-10-17T04:48:01;17.35;;;7.43;;
61104;SDS011;46987;32.638;-115.438;2022-10-17T04:50:28;20.80;;;8.20;;
61104;SDS011;46987;32.638;-115.438;2022-10-17T04:53:29;21.52;;;7.93;;
61104;SDS011;46987;32.638;-115.438;2022-10-17T04:55:57;18.27;;;8.07;;
61104;SDS011;46987;32.638;-115.438;2022-10-17T04:58:26;24.80;;;7.97;;
61104;SDS011;46987;32.638;-115.438;2022-10-17T05:00:57;23.23;;;9.35;;
61104;SDS011;46987;32.638;-115.438;2022-10-17T05:03:27;28.73;;;7.73;;
61104;SDS011;46987;32.638;-115.438;2022-10-17T05:05:55;22.42;;;7.32;;
61104;SDS011;46987;32.638;-115.438;2022-10-17T05:08:22;21.88;;;8.15;;
61104;SDS011;46987;32.638;-115.438;2022-10-17T05:10:50;21.73;;;8.35;;
61104;SDS011;46987;32.638;-115.438;2022-10-17T05:13:18;22.65;;;8.85;;
61104;SDS011;46987;32.638;-115.438;2022-10-17T05:15:47;20.77;;;9.18;;
61104;SDS011;46987;32.638;-115.438;2022-10-17T05:18:16;23.75;;;8.77;;
61104;SDS011;46987;32.638;-115.438;2022-10-17T05:20:44;29.48;;;10.23;;
61104;SDS011;46987;32.638;-115.438;2022-10-17T05:23:11;20.23;;;9.10;;
61104;SDS011;46987;32.638;-115.438;2022-10-17T05:25:41;27.27;;;10.35;;
61104;SDS011;46987;32.638;-115.438;2022-10-17T05:28:10;35.28;;;10.13;;
61104;SDS011;46987;32.638;-115.438;2022-10-17T05:30:39;33.75;;;12.05;;
61104;SDS011;46987;32.638;-115.438;2022-10-17T05:33:08;30.60;;;11.52;;
61104;SDS011;46987;32.638;-115.438;2022-10-17T05:35:37;26.90;;;12.43;;
61104;SDS011;46987;32.638;-115.438;2022-10-17T05:38:05;24.17;;;11.95;;
61104;SDS011;46987;32.638;-115.438;2022-10-17T05:40:34;31.63;;;12.40;;
61104;SDS011;46987;32.638;-115.438;2022-10-17T05:43:01;30.15;;;12.63;;
61104;SDS011;46987;32.638;-115.438;2022-10-17T05:45:29;29.73;;;12.95;;
61104;SDS011;46987;32.638;-115.438;2022-10-17T05:47:58;25.15;;;13.32;;
61104;SDS011;46987;32.638;-115.438;2022-10-17T05:50:25;33.03;;;13.43;;
61104;SDS011;46987;32.638;-115.438;2022-10-17T05:53:05;31.25;;;13.93;;
61104;SDS011;46987;32.638;-115.438;2022-10-17T05:55:38;30.38;;;14.35;;
61104;SDS011;46987;32.638;-115.438;2022-10-17T05:58:06;32.92;;;14.95;;
61104;SDS011;46987;32.638;-115.438;2022-10-17T06:00:38;27.20;;;15.57;;
61104;SDS011;46987;32.638;-115.438;2022-10-17T06:03:05;35.85;;;16.25;;
61104;SDS011;46987;32.638;-115.438;2022-10-17T06:05:34;32.50;;;14.15;;
61104;SDS011;46987;32.638;-115.438;2022-10-17T06:08:01;32.28;;;14.35;;
61104;SDS011;46987;32.638;-115.438;2022-10-17T06:10:35;31.23;;;14.05;;
61104;SDS011;46987;32.638;-115.438;2022-10-17T06:13:03;30.05;;;13.80;;
61104;SDS011;46987;32.638;-115.438;2022-10-17T06:15:31;31.55;;;13.23;;
61104;SDS011;46987;32.638;-115.438;2022-10-17T06:18:02;25.98;;;13.15;;
61104;SDS011;46987;32.638;-115.438;2022-10-17T06:20:29;26.65;;;12.85;;
61104;SDS011;46987;32.638;-115.438;2022-10-17T06:22:57;22.02;;;11.82;;
61104;SDS011;46987;32.638;-115.438;2022-10-17T06:25:54;27.40;;;12.90;;
61104;SDS011;46987;32.638;-115.438;2022-10-17T06:28:24;23.65;;;12.13;;
61104;SDS011;46987;32.638;-115.438;2022-10-17T06:30:51;28.15;;;13.82;;
61104;SDS011;46987;32.638;-115.438;2022-10-17T06:33:19;31.88;;;13.73;;
61104;SDS011;46987;32.638;-115.438;2022-10-17T06:35:52;29.42;;;13.60;;
61104;SDS011;46987;32.638;-115.438;2022-10-17T06:38:21;26.98;;;13.32;;
61104;SDS011;46987;32.638;-115.438;2022-10-17T06:40:51;28.75;;;12.82;;
61104;SDS011;46987;32.638;-115.438;2022-10-17T06:43:20;30.55;;;13.77;;
61104;SDS011;46987;32.638;-115.438;2022-10-17T06:46:08;24.70;;;13.27;;
61104;SDS011;46987;32.638;-115.438;2022-10-17T06:48:37;33.20;;;13.40;;
61104;SDS011;46987;32.638;-115.438;2022-10-17T06:51:16;28.90;;;13.32;;
61104;SDS011;46987;32.638;-115.438;2022-10-17T06:53:51;31.35;;;13.57;;
61104;SDS011;46987;32.638;-115.438;2022-10-17T06:56:36;23.17;;;12.25;;
61104;SDS011;46987;32.638;-115.438;2022-10-17T06:59:28;29.15;;;13.32;;
61104;SDS011;46987;32.638;-115.438;2022-10-17T07:02:18;26.85;;;13.32;;
61104;SDS011;46987;32.638;-115.438;2022-10-17T07:04:46;26.23;;;11.88;;
61104;SDS011;46987;32.638;-115.438;2022-10-17T07:07:13;26.00;;;11.60;;
61104;SDS011;46987;32.638;-115.438;2022-10-17T07:09:40;26.60;;;12.90;;
61104;SDS011;46987;32.638;-115.438;2022-10-17T07:12:08;27.45;;;15.95;;
61104;SDS011;46987;32.638;-115.438;2022-10-17T07:14:43;36.10;;;16.45;;
61104;SDS011;46987;32.638;-115.438;2022-10-17T07:17:12;28.45;;;15.82;;
61104;SDS011;46987;32.638;-115.438;2022-10-17T07:19:41;28.15;;;16.38;;
61104;SDS011;46987;32.638;-115.438;2022-10-17T07:22:11;30.02;;;17.48;;
61104;SDS011;46987;32.638;-115.438;2022-10-17T07:24:42;29.27;;;15.55;;
61104;SDS011;46987;32.638;-115.438;2022-10-17T07:27:32;33.28;;;17.40;;
61104;SDS011;46987;32.638;-115.438;2022-10-17T07:30:02;27.00;;;15.27;;
61104;SDS011;46987;32.638;-115.438;2022-10-17T07:32:37;31.75;;;15.77;;
61104;SDS011;46987;32.638;-115.438;2022-10-17T07:35:06;25.60;;;14.93;;
61104;SDS011;46987;32.638;-115.438;2022-10-17T07:37:35;29.40;;;14.75;;
61104;SDS011;46987;32.638;-115.438;2022-10-17T07:40:02;28.77;;;15.32;;
61104;SDS011;46987;32.638;-115.438;2022-10-17T07:42:31;23.77;;;14.50;;
61104;SDS011;46987;32.638;-115.438;2022-10-17T07:44:58;28.63;;;14.63;;
61104;SDS011;46987;32.638;-115.438;2022-10-17T07:47:31;22.92;;;13.05;;
61104;SDS011;46987;32.638;-115.438;2022-10-17T07:50:01;21.65;;;13.88;;
61104;SDS011;46987;32.638;-115.438;2022-10-17T07:52:28;22.58;;;14.18;;
61104;SDS011;46987;32.638;-115.438;2022-10-17T07:54:56;18.13;;;13.05;;
61104;SDS011;46987;32.638;-115.438;2022-10-17T07:57:24;21.27;;;12.93;;
61104;SDS011;46987;32.638;-115.438;2022-10-17T07:59:51;24.52;;;13.60;;
61104;SDS011;46987;32.638;-115.438;2022-10-17T08:02:20;22.15;;;13.63;;
61104;SDS011;46987;32.638;-115.438;2022-10-17T08:04:50;20.23;;;12.98;;
61104;SDS011;46987;32.638;-115.438;2022-10-17T08:07:18;22.48;;;13.93;;
61104;SDS011;46987;32.638;-115.438;2022-10-17T08:09:46;18.15;;;13.15;;
61104;SDS011;46987;32.638;-115.438;2022-10-17T08:12:13;21.05;;;13.27;;
61104;SDS011;46987;32.638;-115.438;2022-10-17T08:14:41;23.70;;;13.45;;
61104;SDS011;46987;32.638;-115.438;2022-10-17T08:17:09;18.63;;;14.15;;
61104;SDS011;46987;32.638;-115.438;2022-10-17T08:19:37;24.45;;;15.52;;
61104;SDS011;46987;32.638;-115.438;2022-10-17T08:22:06;20.45;;;13.95;;
61104;SDS011;46987;32.638;-115.438;2022-10-17T08:24:34;22.90;;;15.10;;
61104;SDS011;46987;32.638;-115.438;2022-10-17T08:27:01;20.48;;;15.30;;
61104;SDS011;46987;32.638;-115.438;2022-10-17T08:29:33;18.00;;;15.00;;
61104;SDS011;46987;32.638;-115.438;2022-10-17T08:32:02;20.88;;;15.35;;
61104;SDS011;46987;32.638;-115.438;2022-10-17T08:34:29;20.23;;;15.52;;
61104;SDS011;46987;32.638;-115.438;2022-10-17T08:36:56;19.08;;;15.80;;
61104;SDS011;46987;32.638;-115.438;2022-10-17T08:39:25;18.33;;;15.10;;
61104;SDS011;46987;32.638;-115.438;2022-10-17T08:41:56;18.73;;;15.63;;
61104;SDS011;46987;32.638;-115.438;2022-10-17T08:44:36;17.23;;;15.20;;
61104;SDS011;46987;32.638;-115.438;2022-10-17T08:47:12;21.75;;;14.85;;
61104;SDS011;46987;32.638;-115.438;2022-10-17T08:49:42;22.55;;;15.40;;
61104;SDS011;46987;32.638;-115.438;2022-10-17T08:52:15;22.77;;;15.38;;
61104;SDS011;46987;32.638;-115.438;2022-10-17T08:54:51;20.65;;;14.57;;
61104;SDS011;46987;32.638;-115.438;2022-10-17T08:57:18;18.75;;;15.40;;
61104;SDS011;46987;32.638;-115.438;2022-10-17T08:59:48;17.90;;;15.40;;
61104;SDS011;46987;32.638;-115.438;2022-10-17T09:02:21;15.75;;;13.77;;
61104;SDS011;46987;32.638;-115.438;2022-10-17T09:05:19;19.23;;;14.25;;
61104;SDS011;46987;32.638;-115.438;2022-10-17T09:08:00;16.17;;;13.68;;
61104;SDS011;46987;32.638;-115.438;2022-10-17T09:10:39;20.98;;;14.50;;
61104;SDS011;46987;32.638;-115.438;2022-10-17T09:13:20;18.00;;;14.02;;
61104;SDS011;46987;32.638;-115.438;2022-10-17T09:16:03;18.10;;;13.93;;
61104;SDS011;46987;32.638;-115.438;2022-10-17T09:18:55;16.25;;;13.15;;
61104;SDS011;46987;32.638;-115.438;2022-10-17T09:21:30;15.38;;;13.40;;
61104;SDS011;46987;32.638;-115.438;2022-10-17T09:24:05;16.23;;;14.18;;
61104;SDS011;46987;32.638;-115.438;2022-10-17T09:26:41;20.73;;;14.13;;
61104;SDS011;46987;32.638;-115.438;2022-10-17T09:29:14;18.45;;;13.15;;
61104;SDS011;46987;32.638;-115.438;2022-10-17T09:31:46;15.35;;;13.05;;
61104;SDS011;46987;32.638;-115.438;2022-10-17T09:34:19;16.92;;;13.30;;
61104;SDS011;46987;32.638;-115.438;2022-10-17T09:36:48;14.60;;;12.48;;
61104;SDS011;46987;32.638;-115.438;2022-10-17T09:39:16;17.25;;;12.02;;
61104;SDS011;46987;32.638;-115.438;2022-10-17T09:41:48;14.52;;;11.68;;
61104;SDS011;46987;32.638;-115.438;2022-10-17T09:44:18;15.37;;;11.43;;
61104;SDS011;46987;32.638;-115.438;2022-10-17T09:46:58;18.70;;;9.93;;
61104;SDS011;46987;32.638;-115.438;2022-10-17T09:49:32;14.17;;;10.57;;
61104;SDS011;46987;32.638;-115.438;2022-10-17T09:52:00;11.05;;;8.77;;
61104;SDS011;46987;32.638;-115.438;2022-10-17T09:54:31;12.95;;;8.82;;
61104;SDS011;46987;32.638;-115.438;2022-10-17T09:57:09;12.30;;;9.07;;
61104;SDS011;46987;32.638;-115.438;2022-10-17T09:59:37;11.65;;;9.52;;
61104;SDS011;46987;32.638;-115.438;2022-10-17T10:02:13;12.85;;;8.63;;
61104;SDS011;46987;32.638;-115.438;2022-10-17T10:04:52;13.80;;;8.60;;
61104;SDS011;46987;32.638;-115.438;2022-10-17T10:07:25;10.88;;;8.27;;
61104;SDS011;46987;32.638;-115.438;2022-10-17T10:09:55;10.57;;;7.07;;
61104;SDS011;46987;32.638;-115.438;2022-10-17T10:12:25;10.88;;;7.32;;
61104;SDS011;46987;32.638;-115.438;2022-10-17T10:14:54;9.73;;;6.80;;
61104;SDS011;46987;32.638;-115.438;2022-10-17T10:17:35;10.80;;;6.47;;
61104;SDS011;46987;32.638;-115.438;2022-10-17T10:20:23;7.95;;;5.95;;
61104;SDS011;46987;32.638;-115.438;2022-10-17T10:25:51;7.18;;;5.25;;
61104;SDS011;46987;32.638;-115.438;2022-10-17T10:28:24;9.30;;;5.63;;
61104;SDS011;46987;32.638;-115.438;2022-10-17T10:30:53;8.10;;;5.25;;
61104;SDS011;46987;32.638;-115.438;2022-10-17T10:33:22;7.45;;;4.90;;
61104;SDS011;46987;32.638;-115.438;2022-10-17T10:35:56;7.35;;;4.90;;
61104;SDS011;46987;32.638;-115.438;2022-10-17T10:38:27;8.73;;;4.55;;
61104;SDS011;46987;32.638;-115.438;2022-10-17T10:40:55;6.57;;;4.55;;
61104;SDS011;46987;32.638;-115.438;2022-10-17T10:43:30;8.00;;;4.95;;
61104;SDS011;46987;32.638;-115.438;2022-10-17T10:46:00;8.10;;;4.00;;
61104;SDS011;46987;32.638;-115.438;2022-10-17T10:48:31;8.30;;;4.30;;
61104;SDS011;46987;32.638;-115.438;2022-10-17T10:51:01;7.85;;;4.82;;
61104;SDS011;46987;32.638;-115.438;2022-10-17T10:53:35;9.35;;;5.13;;
61104;SDS011;46987;32.638;-115.438;2022-10-17T10:56:09;7.90;;;4.30;;
61104;SDS011;46987;32.638;-115.438;2022-10-17T10:58:50;8.48;;;5.13;;
61104;SDS011;46987;32.638;-115.438;2022-10-17T11:01:21;8.13;;;4.68;;
61104;SDS011;46987;32.638;-115.438;2022-10-17T11:03:57;8.93;;;5.10;;
61104;SDS011;46987;32.638;-115.438;2022-10-17T11:06:33;6.53;;;4.53;;
61104;SDS011;46987;32.638;-115.438;2022-10-17T11:09:09;11.57;;;5.65;;
61104;SDS011;46987;32.638;-115.438;2022-10-17T11:11:47;7.57;;;5.22;;
61104;SDS011;46987;32.638;-115.438;2022-10-17T11:14:31;8.38;;;5.40;;
61104;SDS011;46987;32.638;-115.438;2022-10-17T11:17:07;10.98;;;5.32;;
61104;SDS011;46987;32.638;-115.438;2022-10-17T11:19:44;7.45;;;5.20;;
61104;SDS011;46987;32.638;-115.438;2022-10-17T11:22:18;8.88;;;5.47;;
61104;SDS011;46987;32.638;-115.438;2022-10-17T11:24:52;7.80;;;4.72;;
61104;SDS011;46987;32.638;-115.438;2022-10-17T11:27:24;11.90;;;5.43;;
61104;SDS011;46987;32.638;-115.438;2022-10-17T11:29:55;10.85;;;5.43;;
61104;SDS011;46987;32.638;-115.438;2022-10-17T11:32:25;13.27;;;5.40;;
61104;SDS011;46987;32.638;-115.438;2022-10-17T11:34:59;8.60;;;4.32;;
61104;SDS011;46987;32.638;-115.438;2022-10-17T11:37:31;8.43;;;4.28;;
61104;SDS011;46987;32.638;-115.438;2022-10-17T11:40:04;8.10;;;5.07;;
61104;SDS011;46987;32.638;-115.438;2022-10-17T11:42:41;11.23;;;4.85;;
61104;SDS011;46987;32.638;-115.438;2022-10-17T11:45:18;10.13;;;4.70;;
61104;SDS011;46987;32.638;-115.438;2022-10-17T11:47:48;15.10;;;5.05;;
61104;SDS011;46987;32.638;-115.438;2022-10-17T11:50:21;6.97;;;4.03;;
61104;SDS011;46987;32.638;-115.438;2022-10-17T11:52:52;9.75;;;4.45;;
61104;SDS011;46987;32.638;-115.438;2022-10-17T11:55:23;8.40;;;4.10;;
61104;SDS011;46987;32.638;-115.438;2022-10-17T11:57:54;6.50;;;3.88;;
61104;SDS011;46987;32.638;-115.438;2022-10-17T12:00:33;10.13;;;4.45;;
61104;SDS011;46987;32.638;-115.438;2022-10-17T12:03:16;6.38;;;4.10;;
61104;SDS011;46987;32.638;-115.438;2022-10-17T12:05:51;8.20;;;4.78;;
61104;SDS011;46987;32.638;-115.438;2022-10-17T12:08:24;8.50;;;4.35;;
61104;SDS011;46987;32.638;-115.438;2022-10-17T12:10:57;8.38;;;4.60;;
61104;SDS011;46987;32.638;-115.438;2022-10-17T12:13:46;9.27;;;4.50;;
61104;SDS011;46987;32.638;-115.438;2022-10-17T12:16:37;6.65;;;4.25;;
61104;SDS011;46987;32.638;-115.438;2022-10-17T12:19:27;8.25;;;4.82;;
61104;SDS011;46987;32.638;-115.438;2022-10-17T12:22:02;9.10;;;4.55;;
61104;SDS011;46987;32.638;-115.438;2022-10-17T12:24:41;11.38;;;4.95;;
61104;SDS011;46987;32.638;-115.438;2022-10-17T12:27:32;9.40;;;4.78;;
61104;SDS011;46987;32.638;-115.438;2022-10-17T12:30:06;10.68;;;4.82;;
61104;SDS011;46987;32.638;-115.438;2022-10-17T12:32:57;9.35;;;4.35;;
61104;SDS011;46987;32.638;-115.438;2022-10-17T12:35:31;10.50;;;4.88;;
61104;SDS011;46987;32.638;-115.438;2022-10-17T12:41:00;7.70;;;4.32;;
61104;SDS011;46987;32.638;-115.438;2022-10-17T12:43:45;9.80;;;4.10;;
61104;SDS011;46987;32.638;-115.438;2022-10-17T12:49:21;7.57;;;4.03;;
61104;SDS011;46987;32.638;-115.438;2022-10-17T12:55:09;15.57;;;4.97;;
61104;SDS011;46987;32.638;-115.438;2022-10-17T12:57:47;11.43;;;4.95;;
61104;SDS011;46987;32.638;-115.438;2022-10-17T13:00:24;10.57;;;5.50;;
61104;SDS011;46987;32.638;-115.438;2022-10-17T13:03:00;17.48;;;5.72;;
61104;SDS011;46987;32.638;-115.438;2022-10-17T13:05:32;15.77;;;6.45;;
61104;SDS011;46987;32.638;-115.438;2022-10-17T13:08:02;13.40;;;5.55;;
61104;SDS011;46987;32.638;-115.438;2022-10-17T13:10:32;10.18;;;6.05;;
61104;SDS011;46987;32.638;-115.438;2022-10-17T13:13:04;10.63;;;5.95;;
61104;SDS011;46987;32.638;-115.438;2022-10-17T13:15:37;9.77;;;6.20;;
61104;SDS011;46987;32.638;-115.438;2022-10-17T13:18:04;14.07;;;5.60;;
61104;SDS011;46987;32.638;-115.438;2022-10-17T13:20:34;11.35;;;5.85;;
61104;SDS011;46987;32.638;-115.438;2022-10-17T13:23:01;11.38;;;6.10;;
61104;SDS011;46987;32.638;-115.438;2022-10-17T13:25:29;13.93;;;6.05;;
61104;SDS011;46987;32.638;-115.438;2022-10-17T13:28:03;9.70;;;5.57;;
61104;SDS011;46987;32.638;-115.438;2022-10-17T13:30:38;12.45;;;5.47;;
61104;SDS011;46987;32.638;-115.438;2022-10-17T13:35:54;12.98;;;5.68;;
61104;SDS011;46987;32.638;-115.438;2022-10-17T13:38:22;12.05;;;6.35;;
61104;SDS011;46987;32.638;-115.438;2022-10-17T13:40:53;11.90;;;6.32;;
61104;SDS011;46987;32.638;-115.438;2022-10-17T13:43:20;18.90;;;7.35;;
61104;SDS011;46987;32.638;-115.438;2022-10-17T13:45:49;14.75;;;6.85;;
61104;SDS011;46987;32.638;-115.438;2022-10-17T13:48:19;20.20;;;7.88;;
61104;SDS011;46987;32.638;-115.438;2022-10-17T13:50:49;12.32;;;6.95;;
61104;SDS011;46987;32.638;-115.438;2022-10-17T13:53:24;120.82;;;78.97;;
61104;SDS011;46987;32.638;-115.438;2022-10-17T13:55:56;243.90;;;213.02;;
61104;SDS011;46987;32.638;-115.438;2022-10-17T13:58:25;647.13;;;577.58;;
61104;SDS011;46987;32.638;-115.438;2022-10-17T14:00:56;238.55;;;185.57;;
61104;SDS011;46987;32.638;-115.438;2022-10-17T14:03:24;796.78;;;711.72;;
61104;SDS011;46987;32.638;-115.438;2022-10-17T14:06:01;394.60;;;353.50;;
61104;SDS011;46987;32.638;-115.438;2022-10-17T14:08:30;727.17;;;542.45;;
61104;SDS011;46987;32.638;-115.438;2022-10-17T14:10:59;377.85;;;339.10;;
61104;SDS011;46987;32.638;-115.438;2022-10-17T14:13:28;193.15;;;160.07;;
61104;SDS011;46987;32.638;-115.438;2022-10-17T14:16:02;49.38;;;32.83;;
61104;SDS011;46987;32.638;-115.438;2022-10-17T14:18:31;46.03;;;41.65;;
61104;SDS011;46987;32.638;-115.438;2022-10-17T14:21:00;110.25;;;99.47;;
61104;SDS011;46987;32.638;-115.438;2022-10-17T14:23:31;32.97;;;21.35;;
61104;SDS011;46987;32.638;-115.438;2022-10-17T14:26:08;23.23;;;13.50;;
61104;SDS011;46987;32.638;-115.438;2022-10-17T14:28:38;24.30;;;11.25;;
61104;SDS011;46987;32.638;-115.438;2022-10-17T14:31:16;20.27;;;10.02;;
61104;SDS011;46987;32.638;-115.438;2022-10-17T14:33:50;23.67;;;9.65;;
61104;SDS011;46987;32.638;-115.438;2022-10-17T14:36:19;19.95;;;9.57;;
61104;SDS011;46987;32.638;-115.438;2022-10-17T14:38:57;18.30;;;9.15;;
61104;SDS011;46987;32.638;-115.438;2022-10-17T14:41:26;18.23;;;9.13;;
61104;SDS011;46987;32.638;-115.438;2022-10-17T14:43:58;16.87;;;10.07;;
61104;SDS011;46987;32.638;-115.438;2022-10-17T14:46:31;20.58;;;10.60;;
61104;SDS011;46987;32.638;-115.438;2022-10-17T14:49:02;20.73;;;10.95;;
61104;SDS011;46987;32.638;-115.438;2022-10-17T14:51:30;20.90;;;12.23;;
61104;SDS011;46987;32.638;-115.438;2022-10-17T14:54:00;24.02;;;12.05;;